Maxim — VRIH3 — position and weather

sailwx.info

Track history (hours):
 
Tides and Currents Weather Stations Pressure Air Temp Water Temp Dewpoint Dewpoint Depression Visibility Wind Speed Wind Dir Waves Ship Positions

Maxim

Last reported at 2018-Feb-19 03:29 UTC. Time now 2018-Feb-22 03:18 UTC.
Position S 05°47' E 011°32'.

Length 330 m; draft 20 m.

Type: Tanker. MMSI: 477213500.

Date/timePositionNaut miles runAvg speedWind from/ knotsBaromVisibWave heightAir tempDewpointWater temp
2018-Feb-19 03:29S 05°47' E 011°32'612.1
2018-Feb-19 02:57S 05°43' E 011°36'811.9
2018-Feb-19 02:19S 05°39' E 011°43'1311.5
2018-Feb-19 01:09S 05°32' E 011°55'7 0.2
2018-Feb-17 16:04S 05°31' E 012°02'6 1.4
2018-Feb-17 11:34S 05°28' E 011°56'0 0.0
2018-Feb-17 11:28S 05°28' E 011°56'0 0.0
2018-Feb-17 10:58S 05°28' E 011°56'0 0.0
2018-Feb-17 03:25S 05°28' E 011°56'0 0.0
2018-Feb-17 02:22S 05°28' E 011°56'0 0.1
2018-Feb-17 01:58S 05°28' E 011°56'0 0.0
2018-Feb-17 01:25S 05°28' E 011°56'0 0.1
2018-Feb-17 00:52S 05°28' E 011°56'0 0.0
2018-Feb-17 00:25S 05°28' E 011°56'0 0.1
2018-Feb-16 23:49S 05°28' E 011°56'0 0.2
2018-Feb-16 23:22S 05°28' E 011°56'14 1.1
2018-Feb-16 09:47S 05°21' E 011°44'410.1
2018-Feb-16 09:23S 05°18' E 011°40'511.7
2018-Feb-16 09:00S 05°19' E 011°36'611.9
2018-Feb-16 08:30S 05°19' E 011°30'712.5
2018-Feb-16 07:59S 05°13' E 011°27'612.3
2018-Feb-16 07:30S 05°07' E 011°28'713.1
2018-Feb-16 07:00S 05°01' E 011°29'  
2018-Feb-13 01:00S 05°02' E 011°31'4 8.0
2018-Feb-13 00:30S 05°04' E 011°28'4 8.5
2018-Feb-13 00:00S 05°05' E 011°23'4 8.5
2018-Feb-12 23:30S 05°06' E 011°19'4 8.4
2018-Feb-12 23:00S 05°07' E 011°15'4 8.2
2018-Feb-12 22:30S 05°10' E 011°12'4 8.5
2018-Feb-12 22:00S 05°13' E 011°09'4 8.4
2018-Feb-12 21:30S 05°16' E 011°06'4 8.3
2018-Feb-12 21:00S 05°19' E 011°03'4 8.3
2018-Feb-12 20:30S 05°22' E 011°00'5 9.6
2018-Feb-12 20:00S 05°25' E 010°57'511.0
2018-Feb-12 19:30S 05°29' E 010°53'  
Track history (hours):
 
Tides and Currents Weather Stations Pressure Air Temp Water Temp Dewpoint Dewpoint Depression Visibility Wind Speed Wind Dir Waves Ship Positions

Maxim

Last reported at 2018-Feb-19 03:29 UTC. Time now 2018-Feb-22 03:18 UTC.
Position S 05°47' E 011°32'.

Length 330 m; draft 20 m.

Type: Tanker. MMSI: 477213500.

Date/timePositionNaut miles runAvg speedWind from/ knotsBaromVisibWave heightAir tempDewpointWater temp
2018-Feb-19 03:29S 05°47' E 011°32'612.1
2018-Feb-19 02:57S 05°43' E 011°36'811.9
2018-Feb-19 02:19S 05°39' E 011°43'1311.5
2018-Feb-19 01:09S 05°32' E 011°55'7 0.2
2018-Feb-17 16:04S 05°31' E 012°02'6 1.4
2018-Feb-17 11:34S 05°28' E 011°56'0 0.0
2018-Feb-17 11:28S 05°28' E 011°56'0 0.0
2018-Feb-17 10:58S 05°28' E 011°56'0 0.0
2018-Feb-17 03:25S 05°28' E 011°56'0 0.0
2018-Feb-17 02:22S 05°28' E 011°56'0 0.1
2018-Feb-17 01:58S 05°28' E 011°56'0 0.0
2018-Feb-17 01:25S 05°28' E 011°56'0 0.1
2018-Feb-17 00:52S 05°28' E 011°56'0 0.0
2018-Feb-17 00:25S 05°28' E 011°56'0 0.1
2018-Feb-16 23:49S 05°28' E 011°56'0 0.2
2018-Feb-16 23:22S 05°28' E 011°56'14 1.1
2018-Feb-16 09:47S 05°21' E 011°44'410.1
2018-Feb-16 09:23S 05°18' E 011°40'511.7
2018-Feb-16 09:00S 05°19' E 011°36'611.9
2018-Feb-16 08:30S 05°19' E 011°30'712.5
2018-Feb-16 07:59S 05°13' E 011°27'612.3
2018-Feb-16 07:30S 05°07' E 011°28'713.1
2018-Feb-16 07:00S 05°01' E 011°29'  
2018-Feb-13 01:00S 05°02' E 011°31'4 8.0
2018-Feb-13 00:30S 05°04' E 011°28'4 8.5
2018-Feb-13 00:00S 05°05' E 011°23'4 8.5
2018-Feb-12 23:30S 05°06' E 011°19'4 8.4
2018-Feb-12 23:00S 05°07' E 011°15'4 8.2
2018-Feb-12 22:30S 05°10' E 011°12'4 8.5
2018-Feb-12 22:00S 05°13' E 011°09'4 8.4
2018-Feb-12 21:30S 05°16' E 011°06'4 8.3
2018-Feb-12 21:00S 05°19' E 011°03'4 8.3
2018-Feb-12 20:30S 05°22' E 011°00'5 9.6
2018-Feb-12 20:00S 05°25' E 010°57'511.0
2018-Feb-12 19:30S 05°29' E 010°53'  

Dump ship's entire track history